createdAt,value
2018-01-21T00:00:31.099Z,13.90
2018-01-21T00:02:58.651Z,11.50
2018-01-21T00:05:26.284Z,11.63
2018-01-21T00:07:53.785Z,13.67
2018-01-21T00:10:21.328Z,10.27
2018-01-21T00:12:48.753Z,12.80
2018-01-21T00:15:16.181Z,13.47
2018-01-21T00:17:43.608Z,11.40
2018-01-21T00:20:11.034Z,12.07
2018-01-21T00:22:41.242Z,12.90
2018-01-21T00:25:09.462Z,14.90
2018-01-21T00:27:36.916Z,13.70
2018-01-21T00:30:04.348Z,10.87
2018-01-21T00:32:31.773Z,12.07
2018-01-21T00:34:59.204Z,13.50
2018-01-21T00:37:26.750Z,12.53
2018-01-21T00:39:54.177Z,10.67
2018-01-21T00:42:21.598Z,11.20
2018-01-21T00:44:49.125Z,13.43
2018-01-21T00:47:16.580Z,11.83
2018-01-21T00:49:44.018Z,10.10
2018-01-21T00:52:11.445Z,10.90
2018-01-21T00:54:38.881Z,11.27
2018-01-21T00:57:07.328Z,9.70
2018-01-21T00:59:34.771Z,13.43
2018-01-21T01:02:02.197Z,10.90
2018-01-21T01:04:30.401Z,10.27
2018-01-21T01:06:57.990Z,10.53
2018-01-21T01:09:25.456Z,10.53
2018-01-21T01:11:53.196Z,8.63
2018-01-21T01:14:20.654Z,12.57
2018-01-21T01:16:48.237Z,12.57
2018-01-21T01:19:15.997Z,10.53
2018-01-21T01:21:43.758Z,9.40
2018-01-21T01:24:11.180Z,9.20
2018-01-21T01:26:38.679Z,10.90
2018-01-21T01:29:06.101Z,9.03
2018-01-21T01:31:33.525Z,12.17
2018-01-21T01:34:00.954Z,9.33
2018-01-21T01:36:28.407Z,8.87
2018-01-21T01:38:55.857Z,9.27
2018-01-21T01:41:23.280Z,11.13
2018-01-21T01:43:51.474Z,7.37
2018-01-21T01:46:18.949Z,9.40
2018-01-21T01:48:55.080Z,6.60
2018-01-21T01:51:22.663Z,7.33
2018-01-21T01:53:50.233Z,9.30
2018-01-21T01:56:17.666Z,10.00
2018-01-21T01:58:45.093Z,10.47
2018-01-21T02:01:12.600Z,6.90
2018-01-21T02:03:40.017Z,6.63
2018-01-21T02:06:07.448Z,7.30
2018-01-21T02:08:34.882Z,7.57
2018-01-21T02:11:02.340Z,7.43
2018-01-21T02:13:29.761Z,6.93
2018-01-21T02:15:57.233Z,8.40
2018-01-21T02:18:24.709Z,6.87
2018-01-21T02:20:52.133Z,7.50
2018-01-21T02:23:19.556Z,6.83
2018-01-21T02:25:47.089Z,6.43
2018-01-21T02:28:14.508Z,6.73
2018-01-21T02:30:42.092Z,7.33
2018-01-21T02:33:09.570Z,9.50
2018-01-21T02:35:36.989Z,7.23
2018-01-21T02:38:04.408Z,7.40
2018-01-21T02:40:31.853Z,7.13
2018-01-21T02:42:59.394Z,5.83
2018-01-21T02:45:27.159Z,7.77
2018-01-21T02:47:54.927Z,7.20
2018-01-21T02:50:22.377Z,5.80
2018-01-21T02:52:50.013Z,4.90
2018-01-21T02:55:17.502Z,5.77
2018-01-21T02:57:45.063Z,5.83
2018-01-21T03:00:12.523Z,5.90
2018-01-21T03:02:39.951Z,5.30
2018-01-21T03:05:07.377Z,6.40
2018-01-21T03:07:34.801Z,6.23
2018-01-21T03:10:02.227Z,5.87
2018-01-21T03:12:29.673Z,6.77
2018-01-21T03:14:57.164Z,6.33
2018-01-21T03:17:24.602Z,7.53
2018-01-21T03:19:52.185Z,5.47
2018-01-21T03:22:19.642Z,6.50
2018-01-21T03:24:47.401Z,4.50
2018-01-21T03:27:14.834Z,7.00
2018-01-21T03:29:42.308Z,6.27
2018-01-21T03:32:09.785Z,4.70
2018-01-21T03:34:37.237Z,4.87
2018-01-21T03:37:04.693Z,5.27
2018-01-21T03:39:32.159Z,6.50
2018-01-21T03:41:59.593Z,5.37
2018-01-21T03:44:27.018Z,4.43
2018-01-21T03:46:54.453Z,6.20
2018-01-21T03:49:21.878Z,6.80
2018-01-21T03:51:49.313Z,5.00
2018-01-21T03:54:16.801Z,5.47
2018-01-21T03:56:44.274Z,4.30
2018-01-21T03:59:11.713Z,5.43
2018-01-21T04:01:39.269Z,4.60
2018-01-21T04:04:06.698Z,5.00
2018-01-21T04:06:34.190Z,4.47
2018-01-21T04:09:01.623Z,5.30
2018-01-21T04:11:29.089Z,4.97
2018-01-21T04:13:56.514Z,4.27
2018-01-21T04:16:24.066Z,5.20
2018-01-21T04:18:51.442Z,4.50
2018-01-21T04:21:18.867Z,5.50
2018-01-21T04:23:46.289Z,5.13
2018-01-21T04:26:13.753Z,5.30
2018-01-21T04:28:41.206Z,4.90
2018-01-21T04:31:08.673Z,4.03
2018-01-21T04:33:36.222Z,5.20
2018-01-21T04:36:03.687Z,5.67
2018-01-21T04:38:31.125Z,5.63
2018-01-21T04:40:58.598Z,6.43
2018-01-21T04:43:26.053Z,6.03
2018-01-21T04:45:53.818Z,6.67
2018-01-21T04:48:21.287Z,5.10
2018-01-21T04:50:48.737Z,5.43
2018-01-21T04:53:16.497Z,5.10
2018-01-21T04:55:44.270Z,7.10
2018-01-21T04:58:11.725Z,4.63
2018-01-21T05:00:39.184Z,4.97
2018-01-21T05:03:06.613Z,6.83
2018-01-21T05:05:34.037Z,6.00
2018-01-21T05:08:01.553Z,5.00
2018-01-21T05:10:29.190Z,4.70
2018-01-21T05:12:56.660Z,4.90
2018-01-21T05:15:24.237Z,6.77
2018-01-21T05:17:51.874Z,4.87
2018-01-21T05:20:19.360Z,5.50
2018-01-21T05:22:46.837Z,4.70
2018-01-21T05:25:14.274Z,4.00
2018-01-21T05:27:41.729Z,3.83
2018-01-21T05:30:09.190Z,5.97
2018-01-21T05:32:36.750Z,4.60
2018-01-21T05:35:04.209Z,6.30
2018-01-21T05:37:31.975Z,4.43
2018-01-21T05:39:59.397Z,4.10
2018-01-21T05:42:26.813Z,3.80
2018-01-21T05:44:54.346Z,5.73
2018-01-21T05:47:21.879Z,4.17
2018-01-21T05:49:49.565Z,5.27
2018-01-21T05:52:16.990Z,3.90
2018-01-21T05:54:44.414Z,4.90
2018-01-21T05:57:12.865Z,3.90
2018-01-21T05:59:40.318Z,4.53
2018-01-21T06:02:07.955Z,5.00
2018-01-21T06:04:35.489Z,4.10
2018-01-21T06:07:02.910Z,5.40
2018-01-21T06:09:30.397Z,4.30
2018-01-21T06:11:57.813Z,3.43
2018-01-21T06:14:25.285Z,4.53
2018-01-21T06:16:52.802Z,4.30
2018-01-21T06:19:20.241Z,3.80
2018-01-21T06:21:47.749Z,2.90
2018-01-21T06:24:15.209Z,3.20
2018-01-21T06:26:42.633Z,3.57
2018-01-21T06:29:10.122Z,3.40
2018-01-21T06:31:37.581Z,2.80
2018-01-21T06:34:05.350Z,3.97
2018-01-21T06:36:32.765Z,3.30
2018-01-21T06:39:00.201Z,2.60
2018-01-21T06:41:27.626Z,3.40
2018-01-21T06:43:55.094Z,3.00
2018-01-21T06:46:22.629Z,2.63
2018-01-21T06:48:50.398Z,3.43
2018-01-21T06:51:18.037Z,3.27
2018-01-21T06:53:45.553Z,3.20
2018-01-21T06:56:13.081Z,4.10
2018-01-21T06:58:40.705Z,3.57
2018-01-21T07:01:08.306Z,2.57
2018-01-21T07:03:35.731Z,3.50
2018-01-21T07:06:03.155Z,3.33
2018-01-21T07:08:30.616Z,4.17
2018-01-21T07:10:58.135Z,2.20
2018-01-21T07:13:25.593Z,3.00
2018-01-21T07:15:53.022Z,2.73
2018-01-21T07:18:20.445Z,4.17
2018-01-21T07:20:47.874Z,3.10
2018-01-21T07:23:15.300Z,2.60
2018-01-21T07:25:42.797Z,2.83
2018-01-21T07:28:10.249Z,3.77
2018-01-21T07:30:37.691Z,3.80
2018-01-21T07:33:05.153Z,3.37
2018-01-21T07:35:32.625Z,4.13
2018-01-21T07:38:00.075Z,2.50
2018-01-21T07:40:27.509Z,3.10
2018-01-21T07:42:54.982Z,2.63
2018-01-21T07:45:22.422Z,2.80
2018-01-21T07:47:50.004Z,3.17
2018-01-21T07:50:17.443Z,2.17
2018-01-21T07:52:44.917Z,2.80
2018-01-21T07:55:12.401Z,3.20
2018-01-21T07:57:39.834Z,2.80
2018-01-21T08:00:07.601Z,4.27
2018-01-21T08:02:35.369Z,2.93
2018-01-21T08:05:02.804Z,3.83
2018-01-21T08:07:30.282Z,3.23
2018-01-21T08:09:58.042Z,3.30
2018-01-21T08:12:25.474Z,1.80
2018-01-21T08:14:52.893Z,3.53
2018-01-21T08:17:20.313Z,3.30
2018-01-21T08:19:47.878Z,3.23
2018-01-21T08:22:15.308Z,2.47
2018-01-21T08:24:42.729Z,2.73
2018-01-21T08:27:10.155Z,1.70
2018-01-21T08:29:37.709Z,3.40
2018-01-21T08:32:05.166Z,3.90
2018-01-21T08:34:38.295Z,3.13
2018-01-21T08:37:11.406Z,2.53
2018-01-21T08:39:44.541Z,2.20
2018-01-21T08:42:17.730Z,2.83
2018-01-21T08:44:45.162Z,2.00
2018-01-21T08:47:12.582Z,2.37
2018-01-21T08:49:40.103Z,2.50
2018-01-21T08:52:07.745Z,2.50
2018-01-21T08:54:35.326Z,1.90
2018-01-21T08:57:03.086Z,2.10
2018-01-21T08:59:31.505Z,2.00
2018-01-21T09:01:58.933Z,1.70
2018-01-21T09:04:26.690Z,2.30
2018-01-21T09:06:54.127Z,1.80
2018-01-21T09:09:21.610Z,1.90
2018-01-21T09:11:49.037Z,1.60
2018-01-21T09:14:16.522Z,1.87
2018-01-21T09:16:44.157Z,1.97
2018-01-21T09:19:11.645Z,1.90
2018-01-21T09:21:39.207Z,2.33
2018-01-21T09:24:06.625Z,1.83
2018-01-21T09:26:34.114Z,2.87
2018-01-21T09:29:01.581Z,2.20
2018-01-21T09:31:29.029Z,1.80
2018-01-21T09:33:56.453Z,1.87
2018-01-21T09:36:23.957Z,1.53
2018-01-21T09:38:51.414Z,1.77
2018-01-21T09:41:19.037Z,1.07
2018-01-21T09:43:46.634Z,1.47
2018-01-21T09:46:14.063Z,1.97
2018-01-21T09:48:41.545Z,3.30
2018-01-21T09:51:08.975Z,1.57
2018-01-21T09:53:36.398Z,2.40
2018-01-21T09:56:03.821Z,1.53
2018-01-21T09:58:31.282Z,2.30
2018-01-21T10:00:58.737Z,1.70
2018-01-21T10:03:26.222Z,2.23
2018-01-21T10:05:53.658Z,1.30
2018-01-21T10:08:21.082Z,1.50
2018-01-21T10:10:48.547Z,1.53
2018-01-21T10:13:16.005Z,1.73
2018-01-21T10:15:43.469Z,1.90
2018-01-21T10:18:10.925Z,1.43
2018-01-21T10:20:38.505Z,1.47
2018-01-21T10:23:05.940Z,1.43
2018-01-21T10:25:33.356Z,1.30
2018-01-21T10:28:00.873Z,1.50
2018-01-21T10:30:28.334Z,1.50
2018-01-21T10:32:56.093Z,1.50
2018-01-21T10:35:23.557Z,1.83
2018-01-21T10:37:51.321Z,1.23
2018-01-21T10:40:18.748Z,1.50
2018-01-21T10:42:46.187Z,1.07
2018-01-21T10:45:13.697Z,1.07
2018-01-21T10:47:41.138Z,1.33
2018-01-21T10:50:08.549Z,1.90
2018-01-21T10:52:35.986Z,1.60
2018-01-21T10:55:03.525Z,1.63
2018-01-21T10:57:31.158Z,1.50
2018-01-21T10:59:58.750Z,1.13
2018-01-21T11:02:26.187Z,0.87
2018-01-21T11:04:53.605Z,1.57
2018-01-21T11:07:21.123Z,0.90
2018-01-21T11:09:48.753Z,1.00
2018-01-21T11:12:16.341Z,1.63
2018-01-21T11:14:43.978Z,1.30
2018-01-21T11:17:11.470Z,1.57
2018-01-21T11:19:39.025Z,1.20
2018-01-21T11:22:06.458Z,0.90
2018-01-21T11:24:33.946Z,1.40
2018-01-21T11:27:01.581Z,1.50
2018-01-21T11:29:29.957Z,1.20
2018-01-21T11:31:57.545Z,1.70
2018-01-21T11:34:24.961Z,1.23
2018-01-21T11:36:52.462Z,1.80
2018-01-21T11:39:19.889Z,1.30
2018-01-21T11:41:47.318Z,1.20
2018-01-21T11:44:15.522Z,1.47
2018-01-21T11:46:43.198Z,1.10
2018-01-21T11:49:10.637Z,0.90
2018-01-21T11:51:38.134Z,1.37
2018-01-21T11:54:05.777Z,1.23
2018-01-21T11:56:33.356Z,2.40
2018-01-21T11:59:01.118Z,1.03
2018-01-21T12:01:28.749Z,1.47
2018-01-21T12:03:56.251Z,1.53
2018-01-21T12:06:23.802Z,1.53
2018-01-21T12:08:51.442Z,1.60
2018-01-21T12:11:18.926Z,1.90
2018-01-21T12:13:46.361Z,2.07
2018-01-21T12:16:13.797Z,1.70
2018-01-21T12:18:41.234Z,1.67
2018-01-21T12:21:08.737Z,1.57
2018-01-21T12:23:36.279Z,1.67
2018-01-21T12:26:03.770Z,1.67
2018-01-21T12:28:31.295Z,2.00
2018-01-21T12:30:58.853Z,1.53
2018-01-21T12:33:26.445Z,1.27
2018-01-21T12:35:54.077Z,1.20
2018-01-21T12:38:21.501Z,1.43
2018-01-21T12:40:48.993Z,2.50
2018-01-21T12:43:16.418Z,1.70
2018-01-21T12:45:43.949Z,1.53
2018-01-21T12:48:11.401Z,1.53
2018-01-21T12:50:38.866Z,1.40
2018-01-21T12:53:06.290Z,1.20
2018-01-21T12:55:33.725Z,1.30
2018-01-21T12:58:01.954Z,1.17
2018-01-21T13:00:29.476Z,1.03
2018-01-21T13:02:57.073Z,1.10
2018-01-21T13:05:24.548Z,1.17
2018-01-21T13:07:51.974Z,2.13
2018-01-21T13:10:19.545Z,1.00
2018-01-21T13:12:46.999Z,1.20
2018-01-21T13:15:14.465Z,0.97
2018-01-21T13:17:41.910Z,1.27
2018-01-21T13:20:09.382Z,1.40
2018-01-21T13:22:36.838Z,1.00
2018-01-21T13:25:04.298Z,1.10
2018-01-21T13:27:31.785Z,1.30
2018-01-21T13:29:59.214Z,0.80
2018-01-21T13:32:26.889Z,1.27
2018-01-21T13:34:54.434Z,1.80
2018-01-21T13:37:22.070Z,1.27
2018-01-21T13:39:49.497Z,1.10
2018-01-21T13:42:17.123Z,1.00
2018-01-21T13:44:44.574Z,1.10
2018-01-21T13:47:12.002Z,1.10
2018-01-21T13:49:39.438Z,1.10
2018-01-21T13:52:07.751Z,1.20
2018-01-21T13:54:35.327Z,1.20
2018-01-21T13:57:02.745Z,1.07
2018-01-21T13:59:30.161Z,1.40
2018-01-21T14:01:57.702Z,1.27
2018-01-21T14:04:25.157Z,1.30
2018-01-21T14:06:52.786Z,1.43
2018-01-21T14:09:20.376Z,1.00
2018-01-21T14:11:47.797Z,0.73
2018-01-21T14:14:15.302Z,1.00
2018-01-21T14:16:42.738Z,0.83
2018-01-21T14:19:10.133Z,1.27
2018-01-21T14:21:37.665Z,1.10
2018-01-21T14:24:05.084Z,0.80
2018-01-21T14:26:32.586Z,0.97
2018-01-21T14:29:00.015Z,0.83
2018-01-21T14:31:27.451Z,0.77
2018-01-21T14:33:54.873Z,1.40
2018-01-21T14:36:22.326Z,1.47
2018-01-21T14:38:49.774Z,0.67
2018-01-21T14:41:17.338Z,1.10
2018-01-21T14:43:44.770Z,0.83
2018-01-21T14:46:13.048Z,1.00
2018-01-21T14:48:40.517Z,1.00
2018-01-21T14:51:08.086Z,1.07
2018-01-21T14:53:35.734Z,1.00
2018-01-21T14:56:03.311Z,1.13
2018-01-21T14:58:31.073Z,0.90
2018-01-21T15:00:58.618Z,1.20
2018-01-21T15:03:26.217Z,0.53
2018-01-21T15:05:53.753Z,1.07
2018-01-21T15:08:22.129Z,1.60
2018-01-21T15:10:49.589Z,1.00
2018-01-21T15:13:17.005Z,0.60
2018-01-21T15:15:44.454Z,1.20
2018-01-21T15:18:11.965Z,1.10
2018-01-21T15:20:39.426Z,1.27
2018-01-21T15:23:07.054Z,1.30
2018-01-21T15:25:35.225Z,1.30
2018-01-21T15:28:02.641Z,1.40
2018-01-21T15:30:30.082Z,1.53
2018-01-21T15:32:57.534Z,1.70
2018-01-21T15:35:24.948Z,1.63
2018-01-21T15:37:52.545Z,2.03
2018-01-21T15:40:20.005Z,1.73
2018-01-21T15:42:47.458Z,2.10
2018-01-21T15:45:15.610Z,1.50
2018-01-21T15:47:43.173Z,1.23
2018-01-21T15:50:10.766Z,1.67
2018-01-21T15:52:38.206Z,2.20
2018-01-21T15:55:05.626Z,1.63
2018-01-21T15:57:33.129Z,2.87
2018-01-21T16:00:00.598Z,2.40
2018-01-21T16:02:28.049Z,1.63
2018-01-21T16:04:55.515Z,2.30
2018-01-21T16:07:22.951Z,2.83
2018-01-21T16:09:50.379Z,4.80
2018-01-21T16:12:17.836Z,6.10
2018-01-21T16:14:45.337Z,4.37
2018-01-21T16:17:12.777Z,3.37
2018-01-21T16:19:40.256Z,2.40
2018-01-21T16:22:07.713Z,2.20
2018-01-21T16:24:35.173Z,2.27
2018-01-21T16:27:02.610Z,2.63
2018-01-21T16:29:30.038Z,2.77
2018-01-21T16:31:57.552Z,2.40
2018-01-21T16:34:25.082Z,4.03
2018-01-21T16:36:52.519Z,4.13
2018-01-21T16:39:20.093Z,5.40
2018-01-21T16:41:47.681Z,4.87
2018-01-21T16:44:15.418Z,5.17
2018-01-21T16:46:42.910Z,5.17
2018-01-21T16:49:10.365Z,6.20
2018-01-21T16:51:37.997Z,4.50
2018-01-21T16:54:05.590Z,4.83
2018-01-21T16:56:33.354Z,4.50
2018-01-21T16:59:00.814Z,4.60
2018-01-21T17:01:28.337Z,5.77
2018-01-21T17:03:56.038Z,19.70
2018-01-21T17:06:23.666Z,7.67
2018-01-21T17:08:51.162Z,6.10
2018-01-21T17:11:18.581Z,6.00
2018-01-21T17:13:46.073Z,7.17
2018-01-21T17:16:13.498Z,13.10
2018-01-21T17:18:40.957Z,7.53
2018-01-21T17:21:08.557Z,6.97
2018-01-21T17:23:36.321Z,8.87
2018-01-21T17:26:04.077Z,5.90
2018-01-21T17:28:31.510Z,7.60
2018-01-21T17:30:58.933Z,6.67
2018-01-21T17:33:26.370Z,7.10
2018-01-21T17:35:53.905Z,6.87
2018-01-21T17:38:21.673Z,6.40
2018-01-21T17:40:49.301Z,5.30
2018-01-21T17:43:16.733Z,6.40
2018-01-21T17:45:44.971Z,6.33
2018-01-21T17:48:12.411Z,7.40
2018-01-21T17:50:39.889Z,6.00
2018-01-21T17:53:07.531Z,6.00
2018-01-21T17:55:35.109Z,6.37
2018-01-21T17:58:02.568Z,4.60
2018-01-21T18:00:30.345Z,5.80
2018-01-21T18:02:57.977Z,6.33
2018-01-21T18:05:25.454Z,5.37
2018-01-21T18:07:52.933Z,7.60
2018-01-21T18:10:20.357Z,7.50
2018-01-21T18:12:47.853Z,7.87
2018-01-21T18:15:15.384Z,6.23
2018-01-21T18:17:43.027Z,9.40
2018-01-21T18:20:11.202Z,6.27
2018-01-21T18:22:38.633Z,7.77
2018-01-21T18:25:06.049Z,8.13
2018-01-21T18:27:33.499Z,9.17
2018-01-21T18:30:00.958Z,9.47
2018-01-21T18:32:28.378Z,7.70
2018-01-21T18:34:55.965Z,9.87
2018-01-21T18:37:23.385Z,7.77
2018-01-21T18:39:50.886Z,8.10
2018-01-21T18:42:18.345Z,6.93
2018-01-21T18:44:45.975Z,6.40
2018-01-21T18:47:13.433Z,5.67
2018-01-21T18:49:41.094Z,5.57
2018-01-21T18:52:08.493Z,6.20
2018-01-21T18:54:36.030Z,5.70
2018-01-21T18:57:03.606Z,5.20
2018-01-21T18:59:31.077Z,6.37
2018-01-21T19:01:58.615Z,4.50
2018-01-21T19:04:26.049Z,4.80
2018-01-21T19:06:53.474Z,5.77
2018-01-21T19:09:21.913Z,4.40
2018-01-21T19:11:49.373Z,5.73
2018-01-21T19:14:17.142Z,7.23
2018-01-21T19:16:44.600Z,5.90
2018-01-21T19:19:12.233Z,6.90
2018-01-21T19:21:39.687Z,6.10
2018-01-21T19:24:07.194Z,6.13
2018-01-21T19:26:34.634Z,8.60
2018-01-21T19:29:02.081Z,9.60
2018-01-21T19:31:29.502Z,11.47
2018-01-21T19:33:57.713Z,7.70
2018-01-21T19:36:25.141Z,6.63
2018-01-21T19:38:53.337Z,6.63
2018-01-21T19:41:41.762Z,6.00
2018-01-21T19:44:25.614Z,5.33
2018-01-21T19:46:53.045Z,5.20
2018-01-21T19:49:20.567Z,5.47
2018-01-21T19:51:47.989Z,4.50
2018-01-21T19:54:15.483Z,5.93
2018-01-21T19:56:42.943Z,6.03
2018-01-21T19:59:10.393Z,6.80
2018-01-21T20:01:38.040Z,6.73
2018-01-21T20:04:05.453Z,5.73
2018-01-21T20:06:33.695Z,6.63
2018-01-21T20:09:01.122Z,5.93
2018-01-21T20:11:28.654Z,6.30
2018-01-21T20:13:56.066Z,6.07
2018-01-21T20:16:23.715Z,5.90
2018-01-21T20:18:51.285Z,5.37
2018-01-21T20:21:18.934Z,6.20
2018-01-21T20:23:46.418Z,5.43
2018-01-21T20:26:13.854Z,5.67
2018-01-21T20:28:41.298Z,5.70
2018-01-21T20:31:08.918Z,7.23
2018-01-21T20:33:36.517Z,8.67
2018-01-21T20:36:04.113Z,9.00
2018-01-21T20:38:31.756Z,8.20
2018-01-21T20:40:59.329Z,7.97
2018-01-21T20:43:26.979Z,5.67
2018-01-21T20:45:54.396Z,5.47
2018-01-21T20:48:22.627Z,5.53
2018-01-21T20:50:55.730Z,5.40
2018-01-21T20:53:28.738Z,4.27
2018-01-21T20:55:56.247Z,8.73
2018-01-21T20:58:23.699Z,7.10
2018-01-21T21:00:51.198Z,7.13
2018-01-21T21:03:18.643Z,5.07
2018-01-21T21:05:46.193Z,3.83
2018-01-21T21:08:13.623Z,4.80
2018-01-21T21:10:41.117Z,6.10
2018-01-21T21:13:08.569Z,4.53
2018-01-21T21:15:36.223Z,5.00
2018-01-21T21:18:03.694Z,5.07
2018-01-21T21:20:31.226Z,4.90
2018-01-21T21:22:58.650Z,4.50
2018-01-21T21:25:26.077Z,3.40
2018-01-21T21:27:53.621Z,3.90
2018-01-21T21:30:21.055Z,5.27
2018-01-21T21:32:48.473Z,3.57
2018-01-21T21:35:16.666Z,4.63
2018-01-21T21:37:44.279Z,3.60
2018-01-21T21:40:11.710Z,3.47
2018-01-21T21:42:39.193Z,3.90
2018-01-21T21:45:06.654Z,4.67
2018-01-21T21:47:34.094Z,3.93
2018-01-21T21:50:01.672Z,5.83
2018-01-21T21:52:29.108Z,4.63
2018-01-21T21:54:56.530Z,3.80
2018-01-21T21:57:24.873Z,2.40
2018-01-21T21:59:52.293Z,4.00
2018-01-21T22:02:19.769Z,4.63
2018-01-21T22:04:47.206Z,2.70
2018-01-21T22:07:14.638Z,2.40
2018-01-21T22:09:42.827Z,2.60
2018-01-21T22:12:10.261Z,3.17
2018-01-21T22:14:37.786Z,2.80
2018-01-21T22:17:05.247Z,3.20
2018-01-21T22:19:33.010Z,3.90
2018-01-21T22:22:00.655Z,2.73
2018-01-21T22:24:28.129Z,2.93
2018-01-21T22:26:55.690Z,3.60
2018-01-21T22:29:23.327Z,3.70
2018-01-21T22:31:50.788Z,3.20
2018-01-21T22:34:18.269Z,3.77
2018-01-21T22:36:45.766Z,2.90
2018-01-21T22:39:13.289Z,2.73
2018-01-21T22:41:41.144Z,2.63
2018-01-21T22:44:09.121Z,2.20
2018-01-21T22:46:36.563Z,2.70
2018-01-21T22:49:03.986Z,3.43
2018-01-21T22:51:31.429Z,2.83
2018-01-21T22:53:58.847Z,2.70
2018-01-21T22:56:26.273Z,2.93
2018-01-21T22:58:53.771Z,2.70
2018-01-21T23:01:21.389Z,3.77
2018-01-21T23:03:48.749Z,3.00
2018-01-21T23:06:16.177Z,3.53
2018-01-21T23:08:43.704Z,2.83
2018-01-21T23:11:11.125Z,2.70
2018-01-21T23:13:38.549Z,3.37
2018-01-21T23:16:06.386Z,2.30
2018-01-21T23:18:34.030Z,2.37
2018-01-21T23:21:02.279Z,2.23
2018-01-21T23:23:29.895Z,2.50
2018-01-21T23:25:57.343Z,2.40
2018-01-21T23:28:24.776Z,2.00
2018-01-21T23:30:52.227Z,2.03
2018-01-21T23:33:19.656Z,2.27
2018-01-21T23:35:47.847Z,2.20
2018-01-21T23:38:15.273Z,2.37
2018-01-21T23:40:42.698Z,2.17
2018-01-21T23:43:10.278Z,2.17
2018-01-21T23:45:37.682Z,3.13
2018-01-21T23:48:05.118Z,2.00
2018-01-21T23:50:32.638Z,2.30
2018-01-21T23:53:00.072Z,2.70
2018-01-21T23:55:27.489Z,2.40
2018-01-21T23:57:54.928Z,3.00
